Grissom ARB Airport Peru US
ICAO: KGUS
IATA: GUS
Category: Large
Scheduled Services: No

Elevation: 812 ft
TransAlt. 18000 ft.

Airport Communications:
APP:121.05
ATIS:108.45
CLNC DEL:120
DEP:121.05
GND:128.425
PMSV METRO:34.46
PTD:37.22
TWR:133.7

KGUS Zoom In..

Runways:

(A) RW 05 length 12501 ft width 200 ft
ILS 109.50 / hdg 46

(B) RW 23 length 12501 ft width 200 ft
ILS 109.50 / hdg 226

Location; KGUS
Day. 23 / Time. 09.56 Zulu
* Altimeter: 29.89
* Temperature: 18° c. 64.4°f.
* Wind from: 000° Speed 00 kn.
Dewpoint: 18° c.
Visibility: 10 Statute Miles.
Clouds: Few 4500 ft.
Clouds: Overcast 5000 ft.

KGUS 230956Z AUTO 00000KT 10SM FEW045 OVC050 18/18 A2989 RMK AO2 SLP121 T01790179 $


Wind - Calm.

 
 
jpsmedia.com for Web Design worldairports.se 2018   terms of use